Terminal Aerodrome Forecast
Issued by NWS

Home | Current Version | Previous Version | Text Only | Print | Product List | Glossary On
Versions: 1 2 3 4 5 6 7 8 9 10 11 12 13
000
FTUS44 KTSA 161624 AAA
TAFRVS
TAF AMD
KRVS 161624Z 1616/1712 20012G20KT P6SM SCT250
     FM170000 17011KT P6SM BKN050
     FM170600 17010KT P6SM VCSH BKN025 OVC040
     FM170800 17008KT 4SM -RA BR OVC015=

USA.gov is the U.S. government's official web portal to all federal, state and local government web resources and services.